Saturno — CUFC7 — position and weather

sailwx.info

Track history (hours):
 
Tides and Currents Weather Stations Pressure Air Temp Water Temp Dewpoint Dewpoint Depression Visibility Wind Speed Wind Dir Waves Ship Positions

Saturno

Last reported at 2018-Feb-21 21:00 UTC. Time now 2018-Feb-21 21:15 UTC.
Position N 36°46' W 008°42'.

Length 21 m.

Type: Fishing. MMSI: 263402350.

Date/timePositionNaut miles runAvg speedWind from/ knotsBaromVisibWave heightAir tempDewpointWater temp
2018-Feb-21 21:00N 36°46' W 008°42'7 2.6
2018-Feb-21 18:29N 36°52' W 008°38'1 1.3
2018-Feb-21 17:59N 36°52' W 008°39'1 0.4
2018-Feb-21 14:59N 36°53' W 008°38'2 2.3
2018-Feb-21 14:06N 36°51' W 008°39'0 2.7
2018-Feb-21 14:00N 36°51' W 008°39'2 0.8
2018-Feb-21 10:59N 36°53' W 008°38'3 2.3
2018-Feb-21 09:55N 36°51' W 008°39'1 2.9
2018-Feb-21 09:30N 36°49' W 008°39'6 2.2
2018-Feb-21 06:56N 36°55' W 008°37'4 8.4
2018-Feb-21 06:28N 36°59' W 008°36'4 8.9
2018-Feb-21 06:00N 37°02' W 008°34'5 9.0
2018-Feb-21 05:30N 37°07' W 008°32'1 0.7
2018-Feb-21 03:28N 37°08' W 008°32'0 0.0
2018-Feb-21 02:58N 37°08' W 008°32'0 0.0
2018-Feb-21 02:22N 37°08' W 008°32'0 0.0
2018-Feb-21 01:47N 37°08' W 008°32'0 0.0
2018-Feb-21 01:29N 37°08' W 008°32'0 0.0
2018-Feb-21 00:59N 37°08' W 008°32'0 0.0
2018-Feb-21 00:24N 37°08' W 008°32'0 0.0
2018-Feb-21 00:00N 37°08' W 008°32'0 0.0
2018-Feb-20 23:30N 37°08' W 008°32'0 0.0
2018-Feb-20 22:46N 37°08' W 008°32'0 0.0
2018-Feb-20 22:30N 37°08' W 008°32'0 0.0
2018-Feb-20 21:47N 37°08' W 008°32'0 0.0
2018-Feb-20 21:24N 37°08' W 008°32'0 0.0
2018-Feb-20 20:54N 37°08' W 008°32'0 0.0
2018-Feb-20 20:20N 37°08' W 008°32'0 0.0
2018-Feb-20 19:56N 37°08' W 008°32'2 4.5
2018-Feb-20 19:30N 37°06' W 008°32'511.0
2018-Feb-20 19:00N 37°01' W 008°34'510.9
2018-Feb-20 18:31N 36°56' W 008°36'4 7.3
2018-Feb-20 18:00N 36°53' W 008°38'1 2.6
2018-Feb-20 17:30N 36°51' W 008°39'2 3.1
2018-Feb-20 17:00N 36°50' W 008°39'1 1.0
2018-Feb-20 16:12N 36°49' W 008°39'1 2.7
2018-Feb-20 16:00N 36°49' W 008°39'4 3.3
2018-Feb-20 14:54N 36°53' W 008°38'1 2.0
2018-Feb-20 14:29N 36°52' W 008°38'1 0.2
2018-Feb-20 11:08N 36°53' W 008°38'1 7.0
2018-Feb-20 11:00N 36°52' W 008°39'4 2.3
2018-Feb-20 09:20N 36°48' W 008°39'1 1.4
2018-Feb-20 08:26N 36°50' W 008°39'1 3.2
2018-Feb-20 07:59N 36°51' W 008°39'2 4.0
2018-Feb-20 07:30N 36°53' W 008°38'7 4.0
2018-Feb-20 05:53N 36°47' W 008°40'1 2.6
2018-Feb-20 05:30N 36°47' W 008°41'1 2.5
2018-Feb-20 04:58N 36°46' W 008°43'1 2.5
2018-Feb-20 04:30N 36°46' W 008°45'2 2.3
2018-Feb-20 03:44N 36°47' W 008°47'2 3.4
2018-Feb-20 03:11N 36°46' W 008°44'0 2.9
2018-Feb-20 03:00N 36°46' W 008°44'2 3.0
2018-Feb-20 02:20N 36°47' W 008°41'2 0.4
2018-Feb-19 20:13N 36°46' W 008°44'1 3.0
2018-Feb-19 19:59N 36°46' W 008°43'1 0.5
2018-Feb-19 17:41N 36°48' W 008°43'0 2.7
2018-Feb-19 17:30N 36°48' W 008°44'4 1.8
2018-Feb-19 15:24N 36°51' W 008°45'1 2.7
2018-Feb-19 15:01N 36°50' W 008°45'3 0.5
2018-Feb-19 08:14N 36°50' W 008°49'15 6.5
2018-Feb-19 05:55N 37°01' W 008°36'610.6
2018-Feb-19 05:22N 37°06' W 008°32'2 4.3
2018-Feb-19 04:52N 37°08' W 008°32'0 0.0
2018-Feb-19 04:16N 37°08' W 008°32'0 0.0
2018-Feb-19 03:52N 37°08' W 008°32'0 0.0
2018-Feb-19 03:28N 37°08' W 008°32'0 0.0
2018-Feb-19 02:58N 37°08' W 008°32'0 0.0
2018-Feb-19 02:27N 37°08' W 008°32'0 0.0
2018-Feb-19 01:57N 37°08' W 008°32'0 0.0
2018-Feb-19 01:29N 37°08' W 008°32'0 0.0
2018-Feb-19 00:59N 37°08' W 008°32'0 0.0
2018-Feb-19 00:29N 37°08' W 008°32'0 0.0
2018-Feb-18 23:55N 37°08' W 008°32'0 0.0
2018-Feb-18 22:33N 37°08' W 008°32'0 0.0
2018-Feb-18 22:18N 37°08' W 008°32'0 0.0
2018-Feb-18 19:03N 37°08' W 008°32'0 0.0
2018-Feb-18 18:51N 37°08' W 008°32'1 3.0
2018-Feb-18 18:30N 37°07' W 008°32'510.6
2018-Feb-18 18:00N 37°02' W 008°32'16 2.1
2018-Feb-18 10:37N 36°48' W 008°40'0 2.8
2018-Feb-18 10:30N 36°48' W 008°41'1 2.8
2018-Feb-18 10:00N 36°48' W 008°42'1 2.5
2018-Feb-18 09:30N 36°48' W 008°44'5 0.5
2018-Feb-17 23:20N 36°50' W 008°39'4 1.6
2018-Feb-17 20:30N 36°47' W 008°42'5 2.8
2018-Feb-17 18:48N 36°51' W 008°39'7 0.2
2018-Feb-16 14:46N 36°49' W 008°32'1 2.8
2018-Feb-16 14:30N 36°48' W 008°31'12 1.5
2018-Feb-16 06:06N 36°60' W 008°26'110.7
2018-Feb-16 06:00N 37°01' W 008°27'510.6
2018-Feb-16 05:30N 37°05' W 008°31'3 3.3
2018-Feb-16 04:32N 37°08' W 008°32'0 0.0
2018-Feb-16 04:26N 37°08' W 008°32'0 0.0
2018-Feb-16 03:56N 37°08' W 008°32'0 0.0
2018-Feb-16 03:26N 37°08' W 008°32'0 0.0
2018-Feb-16 02:50N 37°08' W 008°32'0 0.0
2018-Feb-16 02:14N 37°08' W 008°32'0 0.0
2018-Feb-16 01:50N 37°08' W 008°32'0 0.0
2018-Feb-16 01:26N 37°08' W 008°32'0 0.0
2018-Feb-16 00:18N 37°08' W 008°32'0 0.0
2018-Feb-15 21:48N 37°08' W 008°32'0 0.0
2018-Feb-15 21:23N 37°08' W 008°32'0 0.0
2018-Feb-15 20:31N 37°08' W 008°32'0 1.4
2018-Feb-15 20:29N 37°08' W 008°32'0 0.0
2018-Feb-15 19:54N 37°08' W 008°32'1 2.3
2018-Feb-15 19:30N 37°07' W 008°32'510.2
2018-Feb-15 19:00N 37°02' W 008°31'510.3
2018-Feb-15 18:30N 36°57' W 008°30'3 5.1
2018-Feb-15 17:56N 36°54' W 008°30'0 0.0
2018-Feb-14 07:31N 36°54' W 008°29'0 6.1
2018-Feb-14 07:30N 36°54' W 008°29'0 0.5
2018-Feb-14 06:49N 36°55' W 008°29'7 7.6
2018-Feb-14 05:55N 37°01' W 008°31'410.6
2018-Feb-14 05:31N 37°06' W 008°32'2 4.1
2018-Feb-14 04:56N 37°08' W 008°32'0 0.0
2018-Feb-14 04:26N 37°08' W 008°32'0 0.0
2018-Feb-14 03:56N 37°08' W 008°32'0 0.0
2018-Feb-14 03:26N 37°08' W 008°32'0 0.0
2018-Feb-14 02:56N 37°08' W 008°32'0 0.0
2018-Feb-14 02:30N 37°08' W 008°32'0 0.0
2018-Feb-14 02:00N 37°08' W 008°32'0 0.0
2018-Feb-14 01:30N 37°08' W 008°32'0 0.0
2018-Feb-14 01:00N 37°08' W 008°32'0 0.0
2018-Feb-14 00:30N 37°08' W 008°32'0 0.0
2018-Feb-14 00:00N 37°08' W 008°32'0 0.0
2018-Feb-13 23:30N 37°08' W 008°32'0 0.0
2018-Feb-13 22:56N 37°08' W 008°32'0 0.0
2018-Feb-13 22:20N 37°08' W 008°32'0 0.0
2018-Feb-13 21:56N 37°08' W 008°32'0 0.0
2018-Feb-13 21:26N 37°08' W 008°32'0 0.0
2018-Feb-13 21:00N 37°08' W 008°32'0 0.0
2018-Feb-13 20:26N 37°08' W 008°32'0 0.0
2018-Feb-13 19:56N 37°08' W 008°32'0 0.0
2018-Feb-13 19:26N 37°08' W 008°32'0 0.0
2018-Feb-13 18:56N 37°08' W 008°32'0 0.9
2018-Feb-13 18:30N 37°08' W 008°32'5 9.6
2018-Feb-13 18:00N 37°03' W 008°31'510.2
2018-Feb-13 17:30N 36°58' W 008°30'4 5.9
2018-Feb-13 16:53N 36°54' W 008°30'6 0.2
2018-Feb-12 06:04N 36°60' W 008°32'110.7
2018-Feb-12 06:00N 37°00' W 008°32'510.6
2018-Feb-12 05:29N 37°06' W 008°32'2 3.7
2018-Feb-12 04:55N 37°08' W 008°32'0 0.0
2018-Feb-12 04:25N 37°08' W 008°32'0 0.0
2018-Feb-12 03:56N 37°08' W 008°32'0 0.0
2018-Feb-12 03:30N 37°08' W 008°32'0 0.0
2018-Feb-12 03:00N 37°08' W 008°32'0 0.0
2018-Feb-12 02:30N 37°08' W 008°32'0 0.0
2018-Feb-12 01:56N 37°08' W 008°32'0 0.0
2018-Feb-12 01:28N 37°08' W 008°32'0 0.0
2018-Feb-12 00:56N 37°08' W 008°32'0 0.0
2018-Feb-12 00:25N 37°08' W 008°32'0 0.0
2018-Feb-11 23:56N 37°08' W 008°32'0 0.0
2018-Feb-11 23:29N 37°08' W 008°32'0 0.0
2018-Feb-11 22:56N 37°08' W 008°32'0 0.0
2018-Feb-11 22:29N 37°08' W 008°32'0 0.0
2018-Feb-11 21:56N 37°08' W 008°32'0 0.0
2018-Feb-11 21:26N 37°08' W 008°32'  
Track history (hours):
 
Tides and Currents Weather Stations Pressure Air Temp Water Temp Dewpoint Dewpoint Depression Visibility Wind Speed Wind Dir Waves Ship Positions

Saturno

Last reported at 2018-Feb-21 21:00 UTC. Time now 2018-Feb-21 21:15 UTC.
Position N 36°46' W 008°42'.

Length 21 m.

Type: Fishing. MMSI: 263402350.

Date/timePositionNaut miles runAvg speedWind from/ knotsBaromVisibWave heightAir tempDewpointWater temp
2018-Feb-21 21:00N 36°46' W 008°42'7 2.6
2018-Feb-21 18:29N 36°52' W 008°38'1 1.3
2018-Feb-21 17:59N 36°52' W 008°39'1 0.4
2018-Feb-21 14:59N 36°53' W 008°38'2 2.3
2018-Feb-21 14:06N 36°51' W 008°39'0 2.7
2018-Feb-21 14:00N 36°51' W 008°39'2 0.8
2018-Feb-21 10:59N 36°53' W 008°38'3 2.3
2018-Feb-21 09:55N 36°51' W 008°39'1 2.9
2018-Feb-21 09:30N 36°49' W 008°39'6 2.2
2018-Feb-21 06:56N 36°55' W 008°37'4 8.4
2018-Feb-21 06:28N 36°59' W 008°36'4 8.9
2018-Feb-21 06:00N 37°02' W 008°34'5 9.0
2018-Feb-21 05:30N 37°07' W 008°32'1 0.7
2018-Feb-21 03:28N 37°08' W 008°32'0 0.0
2018-Feb-21 02:58N 37°08' W 008°32'0 0.0
2018-Feb-21 02:22N 37°08' W 008°32'0 0.0
2018-Feb-21 01:47N 37°08' W 008°32'0 0.0
2018-Feb-21 01:29N 37°08' W 008°32'0 0.0
2018-Feb-21 00:59N 37°08' W 008°32'0 0.0
2018-Feb-21 00:24N 37°08' W 008°32'0 0.0
2018-Feb-21 00:00N 37°08' W 008°32'0 0.0
2018-Feb-20 23:30N 37°08' W 008°32'0 0.0
2018-Feb-20 22:46N 37°08' W 008°32'0 0.0
2018-Feb-20 22:30N 37°08' W 008°32'0 0.0
2018-Feb-20 21:47N 37°08' W 008°32'0 0.0
2018-Feb-20 21:24N 37°08' W 008°32'0 0.0
2018-Feb-20 20:54N 37°08' W 008°32'0 0.0
2018-Feb-20 20:20N 37°08' W 008°32'0 0.0
2018-Feb-20 19:56N 37°08' W 008°32'2 4.5
2018-Feb-20 19:30N 37°06' W 008°32'511.0
2018-Feb-20 19:00N 37°01' W 008°34'510.9
2018-Feb-20 18:31N 36°56' W 008°36'4 7.3
2018-Feb-20 18:00N 36°53' W 008°38'1 2.6
2018-Feb-20 17:30N 36°51' W 008°39'2 3.1
2018-Feb-20 17:00N 36°50' W 008°39'1 1.0
2018-Feb-20 16:12N 36°49' W 008°39'1 2.7
2018-Feb-20 16:00N 36°49' W 008°39'4 3.3
2018-Feb-20 14:54N 36°53' W 008°38'1 2.0
2018-Feb-20 14:29N 36°52' W 008°38'1 0.2
2018-Feb-20 11:08N 36°53' W 008°38'1 7.0
2018-Feb-20 11:00N 36°52' W 008°39'4 2.3
2018-Feb-20 09:20N 36°48' W 008°39'1 1.4
2018-Feb-20 08:26N 36°50' W 008°39'1 3.2
2018-Feb-20 07:59N 36°51' W 008°39'2 4.0
2018-Feb-20 07:30N 36°53' W 008°38'7 4.0
2018-Feb-20 05:53N 36°47' W 008°40'1 2.6
2018-Feb-20 05:30N 36°47' W 008°41'1 2.5
2018-Feb-20 04:58N 36°46' W 008°43'1 2.5
2018-Feb-20 04:30N 36°46' W 008°45'2 2.3
2018-Feb-20 03:44N 36°47' W 008°47'2 3.4
2018-Feb-20 03:11N 36°46' W 008°44'0 2.9
2018-Feb-20 03:00N 36°46' W 008°44'2 3.0
2018-Feb-20 02:20N 36°47' W 008°41'2 0.4
2018-Feb-19 20:13N 36°46' W 008°44'1 3.0
2018-Feb-19 19:59N 36°46' W 008°43'1 0.5
2018-Feb-19 17:41N 36°48' W 008°43'0 2.7
2018-Feb-19 17:30N 36°48' W 008°44'4 1.8
2018-Feb-19 15:24N 36°51' W 008°45'1 2.7
2018-Feb-19 15:01N 36°50' W 008°45'3 0.5
2018-Feb-19 08:14N 36°50' W 008°49'15 6.5
2018-Feb-19 05:55N 37°01' W 008°36'610.6
2018-Feb-19 05:22N 37°06' W 008°32'2 4.3
2018-Feb-19 04:52N 37°08' W 008°32'0 0.0
2018-Feb-19 04:16N 37°08' W 008°32'0 0.0
2018-Feb-19 03:52N 37°08' W 008°32'0 0.0
2018-Feb-19 03:28N 37°08' W 008°32'0 0.0
2018-Feb-19 02:58N 37°08' W 008°32'0 0.0
2018-Feb-19 02:27N 37°08' W 008°32'0 0.0
2018-Feb-19 01:57N 37°08' W 008°32'0 0.0
2018-Feb-19 01:29N 37°08' W 008°32'0 0.0
2018-Feb-19 00:59N 37°08' W 008°32'0 0.0
2018-Feb-19 00:29N 37°08' W 008°32'0 0.0
2018-Feb-18 23:55N 37°08' W 008°32'0 0.0
2018-Feb-18 22:33N 37°08' W 008°32'0 0.0
2018-Feb-18 22:18N 37°08' W 008°32'0 0.0
2018-Feb-18 19:03N 37°08' W 008°32'0 0.0
2018-Feb-18 18:51N 37°08' W 008°32'1 3.0
2018-Feb-18 18:30N 37°07' W 008°32'510.6
2018-Feb-18 18:00N 37°02' W 008°32'16 2.1
2018-Feb-18 10:37N 36°48' W 008°40'0 2.8
2018-Feb-18 10:30N 36°48' W 008°41'1 2.8
2018-Feb-18 10:00N 36°48' W 008°42'1 2.5
2018-Feb-18 09:30N 36°48' W 008°44'5 0.5
2018-Feb-17 23:20N 36°50' W 008°39'4 1.6
2018-Feb-17 20:30N 36°47' W 008°42'5 2.8
2018-Feb-17 18:48N 36°51' W 008°39'7 0.2
2018-Feb-16 14:46N 36°49' W 008°32'1 2.8
2018-Feb-16 14:30N 36°48' W 008°31'12 1.5
2018-Feb-16 06:06N 36°60' W 008°26'110.7
2018-Feb-16 06:00N 37°01' W 008°27'510.6
2018-Feb-16 05:30N 37°05' W 008°31'3 3.3
2018-Feb-16 04:32N 37°08' W 008°32'0 0.0
2018-Feb-16 04:26N 37°08' W 008°32'0 0.0
2018-Feb-16 03:56N 37°08' W 008°32'0 0.0
2018-Feb-16 03:26N 37°08' W 008°32'0 0.0
2018-Feb-16 02:50N 37°08' W 008°32'0 0.0
2018-Feb-16 02:14N 37°08' W 008°32'0 0.0
2018-Feb-16 01:50N 37°08' W 008°32'0 0.0
2018-Feb-16 01:26N 37°08' W 008°32'0 0.0
2018-Feb-16 00:18N 37°08' W 008°32'0 0.0
2018-Feb-15 21:48N 37°08' W 008°32'0 0.0
2018-Feb-15 21:23N 37°08' W 008°32'0 0.0
2018-Feb-15 20:31N 37°08' W 008°32'0 1.4
2018-Feb-15 20:29N 37°08' W 008°32'0 0.0
2018-Feb-15 19:54N 37°08' W 008°32'1 2.3
2018-Feb-15 19:30N 37°07' W 008°32'510.2
2018-Feb-15 19:00N 37°02' W 008°31'510.3
2018-Feb-15 18:30N 36°57' W 008°30'3 5.1
2018-Feb-15 17:56N 36°54' W 008°30'0 0.0
2018-Feb-14 07:31N 36°54' W 008°29'0 6.1
2018-Feb-14 07:30N 36°54' W 008°29'0 0.5
2018-Feb-14 06:49N 36°55' W 008°29'7 7.6
2018-Feb-14 05:55N 37°01' W 008°31'410.6
2018-Feb-14 05:31N 37°06' W 008°32'2 4.1
2018-Feb-14 04:56N 37°08' W 008°32'0 0.0
2018-Feb-14 04:26N 37°08' W 008°32'0 0.0
2018-Feb-14 03:56N 37°08' W 008°32'0 0.0
2018-Feb-14 03:26N 37°08' W 008°32'0 0.0
2018-Feb-14 02:56N 37°08' W 008°32'0 0.0
2018-Feb-14 02:30N 37°08' W 008°32'0 0.0
2018-Feb-14 02:00N 37°08' W 008°32'0 0.0
2018-Feb-14 01:30N 37°08' W 008°32'0 0.0
2018-Feb-14 01:00N 37°08' W 008°32'0 0.0
2018-Feb-14 00:30N 37°08' W 008°32'0 0.0
2018-Feb-14 00:00N 37°08' W 008°32'0 0.0
2018-Feb-13 23:30N 37°08' W 008°32'0 0.0
2018-Feb-13 22:56N 37°08' W 008°32'0 0.0
2018-Feb-13 22:20N 37°08' W 008°32'0 0.0
2018-Feb-13 21:56N 37°08' W 008°32'0 0.0
2018-Feb-13 21:26N 37°08' W 008°32'0 0.0
2018-Feb-13 21:00N 37°08' W 008°32'0 0.0
2018-Feb-13 20:26N 37°08' W 008°32'0 0.0
2018-Feb-13 19:56N 37°08' W 008°32'0 0.0
2018-Feb-13 19:26N 37°08' W 008°32'0 0.0
2018-Feb-13 18:56N 37°08' W 008°32'0 0.9
2018-Feb-13 18:30N 37°08' W 008°32'5 9.6
2018-Feb-13 18:00N 37°03' W 008°31'510.2
2018-Feb-13 17:30N 36°58' W 008°30'4 5.9
2018-Feb-13 16:53N 36°54' W 008°30'6 0.2
2018-Feb-12 06:04N 36°60' W 008°32'110.7
2018-Feb-12 06:00N 37°00' W 008°32'510.6
2018-Feb-12 05:29N 37°06' W 008°32'2 3.7
2018-Feb-12 04:55N 37°08' W 008°32'0 0.0
2018-Feb-12 04:25N 37°08' W 008°32'0 0.0
2018-Feb-12 03:56N 37°08' W 008°32'0 0.0
2018-Feb-12 03:30N 37°08' W 008°32'0 0.0
2018-Feb-12 03:00N 37°08' W 008°32'0 0.0
2018-Feb-12 02:30N 37°08' W 008°32'0 0.0
2018-Feb-12 01:56N 37°08' W 008°32'0 0.0
2018-Feb-12 01:28N 37°08' W 008°32'0 0.0
2018-Feb-12 00:56N 37°08' W 008°32'0 0.0
2018-Feb-12 00:25N 37°08' W 008°32'0 0.0
2018-Feb-11 23:56N 37°08' W 008°32'0 0.0
2018-Feb-11 23:29N 37°08' W 008°32'0 0.0
2018-Feb-11 22:56N 37°08' W 008°32'0 0.0
2018-Feb-11 22:29N 37°08' W 008°32'0 0.0
2018-Feb-11 21:56N 37°08' W 008°32'0 0.0
2018-Feb-11 21:26N 37°08' W 008°32'  

Dump ship's entire track history